Time;durP1;ratioP1;P1;durP2;ratioP2;P2;SDS_P1;SDS_P2;PMS_P1;PMS_P2;Temp;Humidity;BMP_temperature;BMP_pressure;BME280_temperature;BME280_humidity;BME280_pressure;Samples;Min_cycle;Max_cycle;Signal;HPM_P1;HPM_P2
2023/01/15 00:01:26;;;;;;;;;;;17.80;67.90;;;;;;5053419;28;899;-74
2023/01/15 00:03:51;;;;;;;;;;;17.80;67.90;;;;;;5020281;28;1357;-73
2023/01/15 00:06:17;;;;;;;;;;;17.70;67.80;;;;;;5020179;28;1355;-74
2023/01/15 00:08:42;;;;;;;;;;;17.70;67.90;;;;;;5021135;28;1898;-74
2023/01/15 00:11:08;;;;;;;;;;;17.70;67.80;;;;;;5026113;28;991;-73
2023/01/15 00:13:33;;;;;;;;;;;17.80;67.90;;;;;;5022205;28;885;-73
2023/01/15 00:16:05;;;;;;;;;;;17.80;67.90;;;;;;5021756;28;1216;-73
2023/01/15 00:18:31;;;;;;;;;;;17.70;67.80;;;;;;5029718;28;1363;-74
2023/01/15 00:21:00;;;;;;;;;;;17.80;67.90;;;;;;5022406;28;788;-74
2023/01/15 00:29:04;;;;;;;;;;;17.70;67.90;;;;;;5051933;28;1906;-75
2023/01/15 00:31:29;;;;;;;;;;;17.70;67.90;;;;;;5024797;28;874;-74
2023/01/15 00:33:55;;;;;;;;;;;17.80;67.90;;;;;;5039344;28;1258;-75
2023/01/15 00:36:20;;;;;;;;;;;17.80;68.00;;;;;;5020382;28;1356;-74
2023/01/15 00:38:46;;;;;;;;;;;17.70;67.90;;;;;;5023843;28;863;-73
2023/01/15 00:41:11;;;;;;;;;;;17.80;68.00;;;;;;5023032;28;1018;-74
2023/01/15 00:43:37;;;;;;;;;;;17.80;67.90;;;;;;5022549;28;859;-74
2023/01/15 00:46:04;;;;;;;;;;;17.70;67.90;;;;;;5022265;28;1253;-73
2023/01/15 00:48:30;;;;;;;;;;;17.70;67.90;;;;;;5020617;28;871;-73
2023/01/15 00:50:55;;;;;;;;;;;17.70;67.90;;;;;;5029418;28;1894;-74
2023/01/15 00:53:20;;;;;;;;;;;17.70;67.90;;;;;;5019562;28;998;-74
2023/01/15 00:55:46;;;;;;;;;;;17.70;67.90;;;;;;5020187;28;1356;-74
2023/01/15 00:58:11;;;;;;;;;;;17.70;67.90;;;;;;5018538;28;951;-73
2023/01/15 01:00:37;;;;;;;;;;;17.70;67.90;;;;;;5053499;28;1085;-71
2023/01/15 01:03:02;;;;;;;;;;;17.70;67.90;;;;;;5017371;28;784;-71
2023/01/15 01:05:28;;;;;;;;;;;17.70;67.90;;;;;;5033394;28;1383;-71
2023/01/15 01:07:53;;;;;;;;;;;17.70;67.90;;;;;;5019655;28;1343;-71
2023/01/15 01:10:19;;;;;;;;;;;17.70;67.90;;;;;;5051034;28;1953;-71
2023/01/15 01:12:44;;;;;;;;;;;17.70;67.90;;;;;;5021414;28;876;-72
2023/01/15 01:15:10;;;;;;;;;;;17.70;67.90;;;;;;5017631;28;812;-72
2023/01/15 01:17:36;;;;;;;;;;;17.70;67.90;;;;;;5017764;28;1366;-72
2023/01/15 01:20:02;;;;;;;;;;;17.70;67.90;;;;;;5017814;28;975;-72
2023/01/15 01:22:27;;;;;;;;;;;17.70;67.90;;;;;;5049914;28;816;-72
2023/01/15 01:24:53;;;;;;;;;;;17.70;67.90;;;;;;5018910;28;971;-72
2023/01/15 01:27:18;;;;;;;;;;;17.70;67.90;;;;;;5034205;28;1309;-72
2023/01/15 01:29:44;;;;;;;;;;;17.70;67.90;;;;;;5018909;28;1959;-72
2023/01/15 01:32:09;;;;;;;;;;;17.70;67.90;;;;;;5018042;28;805;-72
2023/01/15 01:34:35;;;;;;;;;;;17.70;67.90;;;;;;5019750;28;962;-73
2023/01/15 01:37:00;;;;;;;;;;;17.70;67.90;;;;;;5018707;28;1237;-72
2023/01/15 01:39:26;;;;;;;;;;;17.70;68.00;;;;;;5025878;28;1282;-72
2023/01/15 01:41:51;;;;;;;;;;;17.70;67.90;;;;;;5016121;28;1029;-73
2023/01/15 01:44:32;;;;;;;;;;;17.70;67.90;;;;;;5019669;28;846;-72
2023/01/15 01:46:58;;;;;;;;;;;17.70;67.90;;;;;;5021401;28;1353;-71
2023/01/15 01:49:24;;;;;;;;;;;17.70;67.90;;;;;;5049267;28;1964;-71
2023/01/15 01:51:50;;;;;;;;;;;17.70;68.00;;;;;;5051346;28;804;-72
2023/01/15 01:54:16;;;;;;;;;;;17.70;67.90;;;;;;5010793;28;873;-71
2023/01/15 01:56:41;;;;;;;;;;;17.70;68.70;;;;;;5018889;28;1435;-72
2023/01/15 01:59:07;;;;;;;;;;;17.70;68.00;;;;;;5019388;28;950;-71
2023/01/15 02:01:32;;;;;;;;;;;17.70;68.00;;;;;;5019956;28;879;-71
2023/01/15 02:03:58;;;;;;;;;;;17.70;68.00;;;;;;5020060;28;1312;-71
2023/01/15 02:06:23;;;;;;;;;;;17.70;68.00;;;;;;5020745;28;1263;-71
2023/01/15 02:08:49;;;;;;;;;;;17.70;68.00;;;;;;5021588;28;1907;-71
2023/01/15 02:11:19;;;;;;;;;;;17.70;68.00;;;;;;5018356;28;849;-72
2023/01/15 02:13:49;;;;;;;;;;;17.70;68.00;;;;;;5021095;28;830;-71
2023/01/15 02:16:15;;;;;;;;;;;17.70;68.00;;;;;;5027518;28;1279;-71
2023/01/15 02:18:59;;;;;;;;;;;17.70;68.00;;;;;;5018086;28;864;-73
2023/01/15 02:21:43;;;;;;;;;;;17.70;68.00;;;;;;5021541;28;1509;-73
2023/01/15 02:24:27;;;;;;;;;;;17.70;68.00;;;;;;5021138;28;954;-73
2023/01/15 02:27:06;;;;;;;;;;;17.70;68.00;;;;;;5018535;28;1299;-72
2023/01/15 02:29:34;;;;;;;;;;;17.70;68.10;;;;;;5019201;28;1922;-72
2023/01/15 02:32:02;;;;;;;;;;;17.70;68.00;;;;;;5020033;28;1329;-72
2023/01/15 02:34:30;;;;;;;;;;;17.70;68.00;;;;;;5049460;28;882;-72
2023/01/15 02:37:09;;;;;;;;;;;17.70;68.00;;;;;;5048427;28;1278;-72
2023/01/15 02:39:35;;;;;;;;;;;17.70;68.00;;;;;;5033022;28;862;-72
2023/01/15 02:42:01;;;;;;;;;;;17.70;68.00;;;;;;5038913;28;1144;-72
2023/01/15 02:44:26;;;;;;;;;;;17.70;68.00;;;;;;5031462;28;934;-71
2023/01/15 02:46:51;;;;;;;;;;;17.70;68.00;;;;;;5048872;28;1370;-73
2023/01/15 02:49:18;;;;;;;;;;;17.70;68.00;;;;;;5033321;28;1902;-73
2023/01/15 02:51:45;;;;;;;;;;;17.70;68.00;;;;;;5022317;28;998;-73
2023/01/15 02:54:12;;;;;;;;;;;17.70;68.00;;;;;;5038741;28;888;-73
2023/01/15 02:56:37;;;;;;;;;;;17.70;68.00;;;;;;5037777;28;1369;-73
2023/01/15 02:59:08;;;;;;;;;;;17.70;68.00;;;;;;5018382;28;831;-74
2023/01/15 03:01:36;;;;;;;;;;;17.70;68.10;;;;;;5023319;28;1058;-73
2023/01/15 03:04:06;;;;;;;;;;;17.70;68.00;;;;;;5024180;28;1289;-73
2023/01/15 03:06:50;;;;;;;;;;;17.70;68.10;;;;;;5022346;28;1205;-73
2023/01/15 03:09:15;;;;;;;;;;;17.70;68.00;;;;;;5025065;28;1973;-74
2023/01/15 03:11:43;;;;;;;;;;;17.70;68.00;;;;;;5025015;28;1405;-74
2023/01/15 03:14:08;;;;;;;;;;;17.70;68.00;;;;;;5058300;28;1370;-74
2023/01/15 03:16:35;;;;;;;;;;;17.70;68.00;;;;;;5021910;28;1416;-72
2023/01/15 03:19:04;;;;;;;;;;;17.70;68.10;;;;;;5053954;28;863;-73
2023/01/15 03:21:43;;;;;;;;;;;17.70;68.10;;;;;;5029935;28;852;-73
2023/01/15 03:24:09;;;;;;;;;;;17.70;68.10;;;;;;5053574;28;855;-70
2023/01/15 03:26:34;;;;;;;;;;;17.70;68.10;;;;;;5038195;28;1655;-73
2023/01/15 03:29:01;;;;;;;;;;;17.70;68.10;;;;;;5023314;28;1968;-73
2023/01/15 03:31:27;;;;;;;;;;;17.70;68.10;;;;;;5022784;28;923;-73
2023/01/15 03:33:52;;;;;;;;;;;17.70;68.00;;;;;;5054243;28;887;-73
2023/01/15 03:36:18;;;;;;;;;;;17.70;68.10;;;;;;5054277;28;1320;-73
2023/01/15 03:38:46;;;;;;;;;;;17.70;68.10;;;;;;5020014;28;841;-73
2023/01/15 03:41:13;;;;;;;;;;;17.70;68.10;;;;;;5022874;28;903;-73
2023/01/15 03:43:49;;;;;;;;;;;17.70;68.10;;;;;;5025661;28;784;-73
2023/01/15 03:46:17;;;;;;;;;;;17.70;68.10;;;;;;5018455;28;1199;-73
2023/01/15 03:48:45;;;;;;;;;;;17.70;68.10;;;;;;5020548;28;805;-73
2023/01/15 03:51:12;;;;;;;;;;;17.70;68.10;;;;;;5054216;28;903;-73
2023/01/15 03:53:39;;;;;;;;;;;17.70;68.10;;;;;;5018568;28;1419;-73
2023/01/15 03:56:07;;;;;;;;;;;17.70;68.10;;;;;;5022676;28;1368;-73
2023/01/15 03:58:35;;;;;;;;;;;17.70;68.10;;;;;;5022424;28;998;-73
2023/01/15 04:01:01;;;;;;;;;;;17.70;68.10;;;;;;5021722;28;1043;-73
2023/01/15 04:03:26;;;;;;;;;;;17.70;68.10;;;;;;5050669;28;1254;-73
2023/01/15 04:05:53;;;;;;;;;;;17.70;68.10;;;;;;5036629;28;1249;-72
2023/01/15 04:08:18;;;;;;;;;;;17.70;68.10;;;;;;5027886;28;916;-73
2023/01/15 04:11:10;;;;;;;;;;;17.70;68.10;;;;;;5033117;28;1898;-73
2023/01/15 04:13:36;;;;;;;;;;;17.70;68.10;;;;;;5018147;28;1234;-73
2023/01/15 04:16:01;;;;;;;;;;;17.70;68.10;;;;;;5026895;28;1354;-73
2023/01/15 04:18:27;;;;;;;;;;;17.70;68.10;;;;;;5019964;28;880;-73
2023/01/15 04:20:55;;;;;;;;;;;17.70;68.10;;;;;;5053756;28;888;-73
2023/01/15 04:23:21;;;;;;;;;;;17.70;68.10;;;;;;5051643;28;893;-72
2023/01/15 04:25:46;;;;;;;;;;;17.70;68.10;;;;;;5022051;28;1254;-72
2023/01/15 04:28:12;;;;;;;;;;;17.70;68.10;;;;;;5022795;28;1257;-72
2023/01/15 04:30:37;;;;;;;;;;;17.70;68.10;;;;;;5016671;28;1969;-73
2023/01/15 04:33:03;;;;;;;;;;;17.70;68.10;;;;;;5019932;28;851;-73
2023/01/15 04:35:28;;;;;;;;;;;17.70;68.20;;;;;;5034393;28;1320;-73
2023/01/15 04:37:55;;;;;;;;;;;17.70;68.10;;;;;;5020863;28;1373;-74
2023/01/15 04:45:48;;;;;;;;;;;17.70;68.10;;;;;;5017707;28;1289;-73
2023/01/15 04:48:14;;;;;;;;;;;17.70;68.20;;;;;;5054010;28;865;-73
2023/01/15 04:50:39;;;;;;;;;;;17.70;68.20;;;;;;5020138;28;1956;-72
2023/01/15 04:53:05;;;;;;;;;;;17.70;68.20;;;;;;5021651;28;1131;-73
2023/01/15 04:55:30;;;;;;;;;;;17.70;68.20;;;;;;5026436;28;1168;-73
2023/01/15 04:57:56;;;;;;;;;;;17.70;68.20;;;;;;5055440;28;1404;-73
2023/01/15 05:00:22;;;;;;;;;;;17.70;68.20;;;;;;5021406;28;857;-73
2023/01/15 05:02:47;;;;;;;;;;;17.70;68.20;;;;;;5051822;28;883;-73
2023/01/15 05:05:13;;;;;;;;;;;17.60;68.20;;;;;;5021562;28;1296;-73
2023/01/15 05:07:38;;;;;;;;;;;17.70;68.20;;;;;;5020829;28;1278;-73
2023/01/15 05:10:04;;;;;;;;;;;17.70;68.10;;;;;;5017913;28;1967;-73
2023/01/15 05:12:29;;;;;;;;;;;17.70;68.10;;;;;;5018402;28;1139;-73
2023/01/15 05:14:55;;;;;;;;;;;17.70;68.00;;;;;;5017805;28;789;-73
2023/01/15 05:17:20;;;;;;;;;;;17.70;67.90;;;;;;5022019;28;1390;-73
2023/01/15 05:19:45;;;;;;;;;;;17.80;67.80;;;;;;5016475;28;858;-73
2023/01/15 05:22:11;;;;;;;;;;;17.80;67.60;;;;;;5018833;28;1484;-73
2023/01/15 05:24:36;;;;;;;;;;;17.90;67.50;;;;;;5034830;28;1567;-73
2023/01/15 05:27:04;;;;;;;;;;;17.90;67.30;;;;;;5015573;28;1196;-73
2023/01/15 05:29:30;;;;;;;;;;;17.90;67.20;;;;;;5020133;28;1898;-72
2023/01/15 05:31:55;;;;;;;;;;;18.00;67.10;;;;;;5034157;28;841;-72
2023/01/15 05:34:20;;;;;;;;;;;18.00;66.90;;;;;;5020773;28;1293;-73
2023/01/15 05:36:46;;;;;;;;;;;18.00;66.80;;;;;;5016572;28;1265;-72
2023/01/15 05:39:11;;;;;;;;;;;18.10;66.70;;;;;;5022337;28;808;-72
2023/01/15 05:41:49;;;;;;;;;;;18.10;66.50;;;;;;5020577;28;934;-73
2023/01/15 05:44:16;;;;;;;;;;;18.20;66.50;;;;;;5017604;28;851;-73
2023/01/15 05:46:41;;;;;;;;;;;18.20;66.40;;;;;;5016796;28;1721;-73
2023/01/15 05:49:08;;;;;;;;;;;18.20;66.30;;;;;;5050437;28;1910;-73
2023/01/15 05:51:35;;;;;;;;;;;18.20;66.20;;;;;;5050866;28;895;-73
2023/01/15 05:54:00;;;;;;;;;;;18.20;66.20;;;;;;5021426;28;812;-73
2023/01/15 05:56:26;;;;;;;;;;;18.20;66.10;;;;;;5018368;28;1331;-74
2023/01/15 05:58:51;;;;;;;;;;;18.20;66.00;;;;;;5051747;28;899;-73
2023/01/15 06:01:17;;;;;;;;;;;18.30;66.00;;;;;;5019436;28;870;-74
2023/01/15 06:03:42;;;;;;;;;;;18.30;66.00;;;;;;5019697;28;1339;-73
2023/01/15 06:06:15;;;;;;;;;;;18.30;65.90;;;;;;5018482;28;1354;-73
2023/01/15 06:08:40;;;;;;;;;;;18.30;65.80;;;;;;5017849;28;966;-73
2023/01/15 06:11:06;;;;;;;;;;;18.30;65.80;;;;;;5018335;28;1894;-73
2023/01/15 06:13:32;;;;;;;;;;;18.30;65.70;;;;;;5006611;28;1436;-73
2023/01/15 06:16:00;;;;;;;;;;;18.30;65.70;;;;;;5017347;28;1763;-75
2023/01/15 06:18:26;;;;;;;;;;;18.30;65.70;;;;;;5020456;28;2077;-75
2023/01/15 06:20:51;;;;;;;;;;;18.40;65.70;;;;;;5049295;28;1387;-74
2023/01/15 06:23:17;;;;;;;;;;;18.40;65.70;;;;;;5025931;28;1655;-71
2023/01/15 06:25:42;;;;;;;;;;;18.30;65.60;;;;;;5017585;28;1322;-70
2023/01/15 06:28:08;;;;;;;;;;;18.40;65.60;;;;;;5024681;28;1347;-71
2023/01/15 06:30:34;;;;;;;;;;;18.40;65.60;;;;;;5022724;28;1895;-71
2023/01/15 06:32:59;;;;;;;;;;;18.40;65.60;;;;;;5054780;28;918;-71
2023/01/15 06:35:25;;;;;;;;;;;18.40;65.50;;;;;;5054120;28;1417;-71
2023/01/15 06:37:50;;;;;;;;;;;18.40;65.50;;;;;;5022542;28;1493;-71
2023/01/15 06:40:16;;;;;;;;;;;18.40;65.50;;;;;;5053044;28;911;-71
2023/01/15 06:48:10;;;;;;;;;;;18.40;65.50;;;;;;5020913;28;853;-71
2023/01/15 06:50:35;;;;;;;;;;;18.40;65.40;;;;;;5024133;28;1995;-71
2023/01/15 06:53:00;;;;;;;;;;;18.40;65.40;;;;;;5020400;28;923;-71
2023/01/15 06:55:26;;;;;;;;;;;18.40;65.40;;;;;;5024197;28;991;-70
2023/01/15 06:57:51;;;;;;;;;;;18.40;65.40;;;;;;5023398;28;1235;-71
2023/01/15 07:00:17;;;;;;;;;;;18.40;65.50;;;;;;5018355;28;872;-72
2023/01/15 07:02:42;;;;;;;;;;;18.40;65.40;;;;;;5053829;28;1306;-72
2023/01/15 07:05:08;;;;;;;;;;;18.40;65.50;;;;;;5023225;28;1273;-71
2023/01/15 07:07:33;;;;;;;;;;;18.40;65.50;;;;;;5054228;28;1325;-71
2023/01/15 07:09:59;;;;;;;;;;;18.40;65.50;;;;;;5023034;28;1968;-73
2023/01/15 07:12:24;;;;;;;;;;;18.40;65.50;;;;;;5020441;28;846;-74
2023/01/15 07:14:50;;;;;;;;;;;18.40;65.50;;;;;;5024233;28;914;-74
2023/01/15 07:17:15;;;;;;;;;;;18.40;65.50;;;;;;5034975;28;2274;-74
2023/01/15 07:19:41;;;;;;;;;;;18.40;65.50;;;;;;5024114;28;1296;-73
2023/01/15 07:22:06;;;;;;;;;;;18.40;65.50;;;;;;5018793;28;855;-72
2023/01/15 07:24:32;;;;;;;;;;;18.40;65.60;;;;;;5018669;28;847;-72
2023/01/15 07:26:57;;;;;;;;;;;18.40;65.60;;;;;;5020299;28;1322;-74
2023/01/15 07:29:23;;;;;;;;;;;18.40;65.60;;;;;;5020453;28;1899;-73
2023/01/15 07:31:49;;;;;;;;;;;18.40;65.60;;;;;;5022899;28;1247;-74
2023/01/15 07:34:14;;;;;;;;;;;18.40;65.60;;;;;;5036284;28;1394;-73
2023/01/15 07:36:40;;;;;;;;;;;18.30;65.60;;;;;;5020282;28;1243;-73
2023/01/15 07:39:05;;;;;;;;;;;18.30;65.60;;;;;;5017582;28;1022;-73
2023/01/15 07:49:49;;;;;;;;;;;18.30;65.70;;;;;;5021968;28;1906;-72
2023/01/15 07:52:18;;;;;;;;;;;18.30;65.70;;;;;;5020259;28;855;-73
2023/01/15 07:54:44;;;;;;;;;;;18.30;65.80;;;;;;5051506;28;2469;-71
2023/01/15 07:57:10;;;;;;;;;;;18.30;65.80;;;;;;5055245;28;1379;-72
2023/01/15 07:59:35;;;;;;;;;;;18.30;65.80;;;;;;5052599;28;1926;-72
2023/01/15 08:02:01;;;;;;;;;;;18.30;65.80;;;;;;5021992;28;1409;-72
2023/01/15 08:04:26;;;;;;;;;;;18.30;65.80;;;;;;5020067;28;1939;-72
2023/01/15 08:06:51;;;;;;;;;;;18.30;65.80;;;;;;5020966;28;1440;-73
2023/01/15 08:09:17;;;;;;;;;;;18.30;65.80;;;;;;5020912;28;1993;-73
2023/01/15 08:17:11;;;;;;;;;;;18.30;65.70;;;;;;5018569;28;1365;-73
2023/01/15 08:19:36;;;;;;;;;;;18.30;65.70;;;;;;5019941;28;850;-73
2023/01/15 08:22:02;;;;;;;;;;;18.30;65.70;;;;;;5020002;28;999;-73
2023/01/15 08:24:28;;;;;;;;;;;18.30;65.60;;;;;;5019642;28;828;-73
2023/01/15 08:26:53;;;;;;;;;;;18.30;65.60;;;;;;5019203;28;1253;-73
2023/01/15 08:29:19;;;;;;;;;;;18.30;65.70;;;;;;5022794;28;1898;-72
2023/01/15 08:31:44;;;;;;;;;;;18.30;65.60;;;;;;5021103;28;1042;-73
2023/01/15 08:34:10;;;;;;;;;;;18.30;65.60;;;;;;5017756;28;858;-73
2023/01/15 08:36:35;;;;;;;;;;;18.30;65.60;;;;;;5021846;28;1273;-72
2023/01/15 08:39:01;;;;;;;;;;;18.30;65.60;;;;;;5021939;28;883;-73
2023/01/15 08:41:26;;;;;;;;;;;18.40;65.70;;;;;;5021391;28;864;-73
2023/01/15 08:43:52;;;;;;;;;;;18.30;65.60;;;;;;5016295;28;869;-72
2023/01/15 08:46:17;;;;;;;;;;;18.40;65.60;;;;;;5018211;28;1362;-73
2023/01/15 08:48:43;;;;;;;;;;;18.40;65.60;;;;;;5010589;28;829;-72
2023/01/15 08:51:09;;;;;;;;;;;18.40;65.60;;;;;;5023366;28;1922;-73
2023/01/15 08:53:34;;;;;;;;;;;18.40;65.60;;;;;;5021520;28;1054;-72
2023/01/15 08:56:00;;;;;;;;;;;18.40;65.60;;;;;;5025133;28;1258;-72
2023/01/15 08:58:29;;;;;;;;;;;18.40;65.50;;;;;;5020039;28;928;-72
2023/01/15 09:00:54;;;;;;;;;;;18.40;65.50;;;;;;5022889;28;796;-72
2023/01/15 09:03:20;;;;;;;;;;;18.40;65.50;;;;;;5022345;28;1323;-72
2023/01/15 09:05:45;;;;;;;;;;;18.40;65.50;;;;;;5019412;28;1245;-73
2023/01/15 09:08:11;;;;;;;;;;;18.40;65.50;;;;;;5019343;28;1077;-73
2023/01/15 09:10:36;;;;;;;;;;;18.40;65.50;;;;;;5019515;28;1973;-72
2023/01/15 09:13:02;;;;;;;;;;;18.40;65.50;;;;;;5021359;28;955;-72
2023/01/15 09:15:27;;;;;;;;;;;18.40;65.50;;;;;;5018376;28;927;-73
2023/01/15 09:17:54;;;;;;;;;;;18.40;65.50;;;;;;5014754;28;1185;-72
2023/01/15 09:20:19;;;;;;;;;;;18.40;65.40;;;;;;5015001;28;899;-73
2023/01/15 09:22:45;;;;;;;;;;;18.40;65.40;;;;;;5018381;28;1014;-72
2023/01/15 09:25:10;;;;;;;;;;;18.50;65.50;;;;;;5018172;28;1011;-72
2023/01/15 09:27:36;;;;;;;;;;;18.40;65.40;;;;;;5017480;28;1251;-72
2023/01/15 09:30:03;;;;;;;;;;;18.40;65.40;;;;;;5017836;28;1926;-73
2023/01/15 09:32:28;;;;;;;;;;;18.40;65.30;;;;;;5021901;28;808;-72
2023/01/15 09:34:54;;;;;;;;;;;18.50;65.40;;;;;;5020457;28;1286;-73
2023/01/15 09:37:19;;;;;;;;;;;18.50;65.40;;;;;;5021156;28;1348;-72
2023/01/15 09:39:45;;;;;;;;;;;18.40;65.30;;;;;;5018086;28;966;-72
2023/01/15 09:42:13;;;;;;;;;;;18.50;65.40;;;;;;5019821;28;943;-73
2023/01/15 09:44:54;;;;;;;;;;;18.40;65.30;;;;;;5018137;28;887;-72
2023/01/15 09:47:22;;;;;;;;;;;18.50;65.30;;;;;;5019052;28;1184;-72
2023/01/15 09:50:07;;;;;;;;;;;18.50;65.30;;;;;;5051485;28;1974;-72
2023/01/15 09:52:40;;;;;;;;;;;18.50;65.30;;;;;;5016355;28;1324;-73
2023/01/15 09:55:11;;;;;;;;;;;18.50;65.30;;;;;;5020757;28;854;-72
2023/01/15 09:57:37;;;;;;;;;;;18.50;65.30;;;;;;5047811;28;1385;-72
2023/01/15 10:00:04;;;;;;;;;;;18.50;65.30;;;;;;5021139;28;796;-73
2023/01/15 10:02:33;;;;;;;;;;;18.50;65.30;;;;;;5039840;28;887;-73
2023/01/15 10:05:03;;;;;;;;;;;18.50;65.30;;;;;;5024724;28;1379;-72
2023/01/15 10:07:29;;;;;;;;;;;18.50;65.30;;;;;;5054861;28;1398;-72
2023/01/15 10:10:13;;;;;;;;;;;18.50;65.30;;;;;;5025743;28;1957;-72
2023/01/15 10:12:39;;;;;;;;;;;18.50;65.30;;;;;;5054701;28;847;-73
2023/01/15 10:15:15;;;;;;;;;;;18.50;65.30;;;;;;5055186;28;868;-72
2023/01/15 10:17:41;;;;;;;;;;;18.50;65.30;;;;;;5039272;28;1387;-72
2023/01/15 10:20:17;;;;;;;;;;;18.50;65.30;;;;;;5023946;28;952;-72
2023/01/15 10:23:08;;;;;;;;;;;18.50;65.30;;;;;;5043139;28;1187;-72
2023/01/15 10:25:57;;;;;;;;;;;18.50;65.30;;;;;;5014968;28;1215;-72
2023/01/15 10:28:24;;;;;;;;;;;18.50;65.30;;;;;;5020308;28;1220;-73
2023/01/15 10:30:50;;;;;;;;;;;18.50;65.30;;;;;;5022296;28;1965;-73
2023/01/15 10:33:19;;;;;;;;;;;18.50;65.30;;;;;;5025094;28;845;-73
2023/01/15 10:35:47;;;;;;;;;;;18.50;65.30;;;;;;5021894;28;1367;-73
2023/01/15 10:38:15;;;;;;;;;;;18.50;65.60;;;;;;5022778;28;872;-72
2023/01/15 10:40:43;;;;;;;;;;;18.50;65.30;;;;;;5051100;28;975;-72
2023/01/15 10:43:29;;;;;;;;;;;18.50;65.30;;;;;;5056045;28;1112;-73
2023/01/15 10:45:55;;;;;;;;;;;18.50;65.30;;;;;;5027585;28;1247;-73
2023/01/15 10:48:27;;;;;;;;;;;18.50;65.30;;;;;;5021809;28;1220;-72
2023/01/15 10:50:52;;;;;;;;;;;18.50;65.20;;;;;;5023685;28;1898;-72
2023/01/15 10:53:36;;;;;;;;;;;18.50;65.30;;;;;;5053452;28;1550;-72
2023/01/15 10:56:04;;;;;;;;;;;18.50;65.30;;;;;;5055043;28;1359;-72
2023/01/15 10:58:33;;;;;;;;;;;18.50;65.30;;;;;;5056122;28;914;-72
2023/01/15 11:01:08;;;;;;;;;;;18.50;66.00;;;;;;5029158;28;1178;-72
2023/01/15 11:03:35;;;;;;;;;;;18.50;65.30;;;;;;5055210;28;1360;-73
2023/01/15 11:06:00;;;;;;;;;;;18.50;65.30;;;;;;5054015;28;1209;-73
2023/01/15 11:08:31;;;;;;;;;;;18.50;65.20;;;;;;5021644;28;881;-73
2023/01/15 11:10:58;;;;;;;;;;;18.50;65.20;;;;;;5020659;28;1910;-72
2023/01/15 11:21:47;;;;;;;;;;;18.50;65.20;;;;;;5043224;28;871;-72
2023/01/15 11:24:13;;;;;;;;;;;18.50;65.20;;;;;;5048267;28;825;-74
2023/01/15 11:26:39;;;;;;;;;;;18.50;65.30;;;;;;5051375;28;1386;-72
2023/01/15 11:29:11;;;;;;;;;;;18.50;65.20;;;;;;5020313;28;1906;-73
2023/01/15 11:31:37;;;;;;;;;;;18.50;65.20;;;;;;5051991;28;899;-73
2023/01/15 11:34:04;;;;;;;;;;;18.50;65.20;;;;;;5028831;28;830;-73
2023/01/15 11:36:30;;;;;;;;;;;18.50;65.20;;;;;;5020020;28;1466;-72
2023/01/15 11:38:55;;;;;;;;;;;18.50;65.20;;;;;;5020255;28;945;-73
2023/01/15 11:52:32;;;;;;;;;;;18.50;65.20;;;;;;5019204;28;836;-72
2023/01/15 11:54:57;;;;;;;;;;;18.50;65.20;;;;;;5020219;28;846;-72
2023/01/15 11:57:30;;;;;;;;;;;18.50;65.20;;;;;;5051348;28;1228;-72
2023/01/15 11:59:56;;;;;;;;;;;18.50;65.20;;;;;;5022546;28;943;-73
2023/01/15 12:02:31;;;;;;;;;;;18.50;65.30;;;;;;5021956;28;933;-72
2023/01/15 12:04:58;;;;;;;;;;;18.50;65.30;;;;;;5018890;28;1240;-73
2023/01/15 12:07:25;;;;;;;;;;;18.50;65.30;;;;;;5053614;28;1496;-72
2023/01/15 12:09:58;;;;;;;;;;;18.40;65.30;;;;;;5051652;28;2178;-72
2023/01/15 12:12:32;;;;;;;;;;;18.40;65.30;;;;;;5028762;28;2108;-73
2023/01/15 12:14:58;;;;;;;;;;;18.40;65.40;;;;;;5033131;28;1310;-73
2023/01/15 12:17:42;;;;;;;;;;;18.40;65.40;;;;;;5018421;28;1381;-73
2023/01/15 12:20:22;;;;;;;;;;;18.40;65.40;;;;;;5022741;28;1228;-73
2023/01/15 12:23:06;;;;;;;;;;;18.40;65.50;;;;;;5022042;28;851;-73
2023/01/15 12:25:47;;;;;;;;;;;18.40;65.50;;;;;;5019080;28;875;-73
2023/01/15 12:28:24;;;;;;;;;;;18.40;65.50;;;;;;5022505;28;1281;-72
2023/01/15 12:30:53;;;;;;;;;;;18.40;65.60;;;;;;5051195;28;1902;-73
2023/01/15 12:33:25;;;;;;;;;;;18.40;65.60;;;;;;5022753;28;839;-72
2023/01/15 12:35:55;;;;;;;;;;;18.40;65.70;;;;;;5020664;28;1355;-73
2023/01/15 12:38:30;;;;;;;;;;;18.40;65.70;;;;;;5027820;28;855;-73
2023/01/15 12:40:58;;;;;;;;;;;18.30;65.60;;;;;;5054572;28;894;-73
2023/01/15 12:46:13;;;;;;;;;;;18.30;65.80;;;;;;5048251;28;1292;-73
2023/01/15 12:48:47;;;;;;;;;;;18.30;65.70;;;;;;5020322;28;853;-73
2023/01/15 12:51:13;;;;;;;;;;;18.30;65.70;;;;;;5019155;28;1906;-72
2023/01/15 12:53:49;;;;;;;;;;;18.30;65.80;;;;;;5020537;28;1943;-72
2023/01/15 12:56:28;;;;;;;;;;;18.30;65.80;;;;;;5033553;28;1977;-72
2023/01/15 12:59:15;;;;;;;;;;;18.30;65.90;;;;;;5051542;28;2185;-71
2023/01/15 13:02:01;;;;;;;;;;;18.30;65.90;;;;;;5027974;28;1976;-72
2023/01/15 13:04:29;;;;;;;;;;;18.30;66.00;;;;;;5023387;28;1485;-72
2023/01/15 13:06:56;;;;;;;;;;;18.30;66.00;;;;;;5054766;28;1533;-72
2023/01/15 13:09:29;;;;;;;;;;;18.30;66.00;;;;;;5052776;28;1970;-72
2023/01/15 13:11:55;;;;;;;;;;;18.30;66.00;;;;;;5020219;28;883;-72
2023/01/15 13:14:22;;;;;;;;;;;18.20;66.00;;;;;;5021109;28;1232;-73
2023/01/15 13:16:50;;;;;;;;;;;18.30;66.10;;;;;;5019777;28;1362;-74
2023/01/15 13:19:20;;;;;;;;;;;18.30;66.10;;;;;;5033919;28;1282;-72
2023/01/15 13:21:46;;;;;;;;;;;18.20;66.10;;;;;;5018923;28;1097;-72
2023/01/15 13:24:30;;;;;;;;;;;18.20;66.10;;;;;;5052969;28;1253;-73
2023/01/15 13:27:02;;;;;;;;;;;18.20;66.20;;;;;;5019221;28;1368;-73
2023/01/15 13:29:30;;;;;;;;;;;18.20;66.20;;;;;;5014544;28;1914;-73
2023/01/15 13:32:05;;;;;;;;;;;18.20;66.20;;;;;;5018603;28;857;-72
2023/01/15 13:34:33;;;;;;;;;;;18.20;66.20;;;;;;5018343;28;1382;-72
2023/01/15 13:37:02;;;;;;;;;;;18.20;66.30;;;;;;5052046;28;1252;-72
2023/01/15 13:39:31;;;;;;;;;;;18.20;66.60;;;;;;5020483;28;824;-72
2023/01/15 13:44:46;;;;;;;;;;;18.20;66.40;;;;;;5017234;28;827;-73
2023/01/15 13:47:12;;;;;;;;;;;18.20;67.30;;;;;;5050783;28;1277;-72
2023/01/15 13:49:39;;;;;;;;;;;18.20;66.50;;;;;;5049259;28;1968;-72
2023/01/15 13:52:06;;;;;;;;;;;18.20;66.50;;;;;;5017920;28;879;-72
2023/01/15 13:54:34;;;;;;;;;;;18.20;66.50;;;;;;5020541;28;804;-72
2023/01/15 13:57:09;;;;;;;;;;;18.20;66.50;;;;;;5043338;28;1357;-72
2023/01/15 13:59:42;;;;;;;;;;;18.20;66.60;;;;;;5055391;28;1432;-72
2023/01/15 14:02:21;;;;;;;;;;;18.20;66.60;;;;;;5028111;28;1336;-72
2023/01/15 14:04:47;;;;;;;;;;;18.10;66.60;;;;;;5052882;28;964;-71
2023/01/15 14:07:19;;;;;;;;;;;18.20;66.70;;;;;;5016190;28;1364;-72
2023/01/15 14:09:44;;;;;;;;;;;18.10;66.60;;;;;;5017883;28;1904;-72
2023/01/15 14:12:13;;;;;;;;;;;18.20;66.70;;;;;;5021639;28;907;-72
2023/01/15 14:14:47;;;;;;;;;;;18.10;66.70;;;;;;5020951;28;915;-73
2023/01/15 14:17:15;;;;;;;;;;;18.10;66.70;;;;;;5018190;28;1344;-71
2023/01/15 14:20:02;;;;;;;;;;;18.10;66.70;;;;;;5018536;28;899;-72
2023/01/15 14:22:34;;;;;;;;;;;18.10;66.70;;;;;;5041235;28;1366;-72
2023/01/15 14:25:13;;;;;;;;;;;18.10;66.70;;;;;;5015322;28;910;-72
2023/01/15 14:27:48;;;;;;;;;;;18.10;66.80;;;;;;5049556;28;1303;-72
2023/01/15 14:30:23;;;;;;;;;;;18.10;66.80;;;;;;5018467;28;1969;-72
2023/01/15 14:33:07;;;;;;;;;;;18.10;66.80;;;;;;5017499;28;871;-73
2023/01/15 14:35:36;;;;;;;;;;;18.10;66.80;;;;;;5016704;28;1275;-72
2023/01/15 14:38:05;;;;;;;;;;;18.10;66.90;;;;;;5048760;28;819;-72
2023/01/15 14:40:31;;;;;;;;;;;18.10;66.90;;;;;;5051788;28;1633;-72
2023/01/15 14:43:00;;;;;;;;;;;18.10;66.90;;;;;;5017465;28;880;-73
2023/01/15 14:45:35;;;;;;;;;;;18.10;66.90;;;;;;5017996;28;835;-71
2023/01/15 14:48:02;;;;;;;;;;;18.00;66.90;;;;;;5056704;28;1216;-72
2023/01/15 14:50:30;;;;;;;;;;;18.10;67.00;;;;;;5028934;28;1965;-72
2023/01/15 14:52:59;;;;;;;;;;;18.10;66.90;;;;;;5020359;28;857;-72
2023/01/15 14:55:25;;;;;;;;;;;18.10;67.00;;;;;;5024424;28;910;-72
2023/01/15 14:57:53;;;;;;;;;;;18.00;66.90;;;;;;5022175;28;1283;-72
2023/01/15 15:00:19;;;;;;;;;;;18.00;67.00;;;;;;5022946;28;860;-72
2023/01/15 15:02:44;;;;;;;;;;;18.00;67.00;;;;;;5053367;28;1040;-72
2023/01/15 15:05:12;;;;;;;;;;;18.00;66.90;;;;;;5054004;28;1396;-73
2023/01/15 15:07:46;;;;;;;;;;;18.00;67.00;;;;;;5052576;28;1288;-72
2023/01/15 15:10:15;;;;;;;;;;;18.00;67.00;;;;;;5051208;28;1902;-72
2023/01/15 15:12:42;;;;;;;;;;;18.00;67.00;;;;;;5020133;28;946;-73
2023/01/15 15:15:20;;;;;;;;;;;18.00;67.00;;;;;;5023449;28;871;-74
2023/01/15 15:17:48;;;;;;;;;;;18.00;67.00;;;;;;5019054;28;1271;-74
2023/01/15 15:20:23;;;;;;;;;;;18.00;67.10;;;;;;5023560;28;938;-73
2023/01/15 15:22:50;;;;;;;;;;;18.00;67.10;;;;;;5020429;28;868;-73
2023/01/15 15:25:20;;;;;;;;;;;18.00;67.10;;;;;;5052825;28;856;-74
2023/01/15 15:27:45;;;;;;;;;;;18.00;67.10;;;;;;5012918;28;1363;-73
2023/01/15 15:30:12;;;;;;;;;;;18.00;67.10;;;;;;5038008;28;1894;-73
2023/01/15 15:32:40;;;;;;;;;;;18.00;67.10;;;;;;5022060;28;862;-73
2023/01/15 15:35:15;;;;;;;;;;;18.00;67.10;;;;;;5019923;28;1277;-73
2023/01/15 15:37:42;;;;;;;;;;;18.00;67.20;;;;;;5052665;28;1379;-73